Time;durP1;ratioP1;P1;durP2;ratioP2;P2;SDS_P1;SDS_P2;PMS_P1;PMS_P2;Temp;Humidity;BMP_temperature;BMP_pressure;BME280_temperature;BME280_humidity;BME280_pressure;Samples;Min_cycle;Max_cycle;Signal;HPM_P1;HPM_P2
2021/12/03 08:39:32;;;;;;;;;6.25;5.00;;;;;4.11;100.00;101016.88;5114064;27;45455;-61
2021/12/03 08:41:57;;;;;;;;;2.50;1.00;;;;;4.35;100.00;101023.78;5096946;27;45293;-62
2021/12/03 08:44:23;;;;;;;;;8.25;7.50;;;;;4.64;100.00;101029.88;5096102;27;45244;-64
2021/12/03 08:46:56;;;;;;;;;13.75;4.50;;;;;4.87;100.00;101017.00;5097131;27;45299;-63
2021/12/03 08:54:54;;;;;;;;;4.75;4.00;;;;;5.32;100.00;101036.72;5096181;27;45309;-61
2021/12/03 08:57:26;;;;;;;;;5.50;5.50;;;;;5.44;100.00;101029.00;5096294;27;45338;-61
2021/12/03 08:59:54;;;;;;;;;2.00;2.00;;;;;5.58;100.00;101022.94;5096623;27;46235;-61
2021/12/03 09:02:22;;;;;;;;;4.75;4.00;;;;;5.69;100.00;101013.47;5095983;27;46009;-61
2021/12/03 09:04:48;;;;;;;;;9.50;6.75;;;;;5.75;100.00;101019.44;5095694;27;45346;-62
2021/12/03 09:07:14;;;;;;;;;5.00;5.00;;;;;5.83;100.00;101024.59;5096012;27;45318;-66
2021/12/03 09:09:40;;;;;;;;;3.50;1.50;;;;;5.88;98.54;101025.44;5096466;27;45483;-60
2021/12/03 09:12:06;;;;;;;;;5.00;5.00;;;;;5.91;100.00;101027.16;5095968;27;45326;-60
2021/12/03 09:14:41;;;;;;;;;9.75;5.75;;;;;5.97;100.00;101028.00;5078167;27;45581;-61
2021/12/03 09:22:31;;;;;;;;;6.00;5.00;;;;;6.03;99.10;101014.22;5053172;27;45508;-64
2021/12/03 09:24:57;;;;;;;;;6.00;6.00;;;;;6.06;100.00;101015.06;5073999;28;45422;-63
2021/12/03 09:27:23;;;;;;;;;9.25;8.50;;;;;6.09;100.00;101007.31;5074687;28;45462;-63
2021/12/03 09:29:50;;;;;;;;;4.00;3.25;;;;;6.12;100.00;101006.44;5075501;27;45299;-63
2021/12/03 09:32:21;;;;;;;;;6.25;5.00;;;;;6.06;100.00;100996.16;5075991;27;45867;-62
2021/12/03 09:34:47;;;;;;;;;3.25;3.25;;;;;5.99;99.59;100984.97;5075770;28;45455;-61
2021/12/03 09:37:13;;;;;;;;;4.75;4.75;;;;;5.94;100.00;100989.31;5057068;28;45284;-60
2021/12/03 09:39:41;;;;;;;;;6.00;2.50;;;;;5.97;100.00;100986.72;5073818;28;46172;-61
2021/12/03 09:42:07;;;;;;;;;4.00;3.50;;;;;6.01;100.00;100985.00;5073189;28;45258;-72
2021/12/03 09:44:33;;;;;;;;;5.25;4.00;;;;;6.01;100.00;100980.69;5073843;28;45281;-63
2021/12/03 09:47:00;;;;;;;;;5.00;5.00;;;;;6.04;100.00;100979.81;5073272;28;45532;-59
2021/12/03 09:49:32;;;;;;;;;6.00;3.75;;;;;6.09;100.00;100973.78;5069077;28;46101;-60
2021/12/03 09:54:44;;;;;;;;;5.75;4.00;;;;;6.00;93.95;100965.19;5060662;28;45284;-59
2021/12/03 09:57:18;;;;;;;;;2.75;2.75;;;;;5.92;100.00;100977.28;5061596;28;45275;-59
2021/12/03 10:02:52;;;;;;;;;11.75;7.00;;;;;5.95;100.00;100972.97;5060996;28;45353;-59
2021/12/03 10:13:21;;;;;;;;;5.75;4.00;;;;;5.79;100.00;100979.03;5061802;28;45770;-59
2021/12/03 10:35:36;;;;;;;;;7.75;7.75;;;;;5.66;100.00;100929.25;5061428;28;45752;-59
2021/12/03 10:40:28;;;;;;;;;12.00;8.25;;;;;5.66;100.00;100918.94;5056627;28;45279;-59
2021/12/03 10:51:56;;;;;;;;;7.00;6.50;;;;;5.57;100.00;100889.75;5057131;28;45278;-59
2021/12/03 10:57:21;;;;;;;;;4.50;4.50;;;;;5.49;100.00;100877.75;5062792;28;45346;-60
2021/12/03 11:35:08;;;;;;;;;6.50;5.00;;;;;4.92;100.00;100824.72;5059668;28;45169;-59
2021/12/03 12:02:32;;;;;;;;;6.50;4.75;;;;;4.83;100.00;100727.78;5050051;28;46285;-59
2021/12/03 13:25:17;;;;;;;;;5.00;2.00;;;;;5.17;100.00;100609.97;5059815;28;45245;-59
2021/12/03 14:29:07;;;;;;;;;5.00;5.00;;;;;5.47;100.00;100526.41;5052730;28;45616;-67
2021/12/03 14:34:39;;;;;;;;;4.50;2.50;;;;;5.56;100.00;100507.41;5061275;28;46816;-68
2021/12/03 14:44:35;;;;;;;;;4.75;3.50;;;;;5.62;100.00;100476.41;5060960;28;45413;-67
2021/12/03 14:47:30;;;;;;;;;2.50;0.00;;;;;5.67;100.00;100489.25;5061346;28;45363;-64
2021/12/03 14:55:48;;;;;;;;;1.50;1.50;;;;;5.71;100.00;100465.97;5060547;28;45666;-62
2021/12/03 14:58:59;;;;;;;;;4.75;1.00;;;;;5.78;100.00;100467.59;5060667;28;45863;-61
2021/12/03 15:01:03;;;;;;;;;4.00;4.00;;;;;5.79;100.00;100450.41;5042989;28;45324;-62
2021/12/03 15:06:38;;;;;;;;;1.00;1.00;;;;;5.78;100.00;100446.13;5060526;28;45288;-63
2021/12/03 15:09:39;;;;;;;;;2.25;2.25;;;;;5.79;100.00;100452.97;5058524;28;46059;-62
2021/12/03 15:30:02;;;;;;;;;3.00;3.00;;;;;5.90;100.00;100433.13;5060395;28;45439;-62
2021/12/03 15:40:57;;;;;;;;;4.00;4.00;;;;;5.95;100.00;100412.41;5010617;28;45293;-60
2021/12/03 15:52:21;;;;;;;;;4.50;4.50;;;;;5.90;100.00;100394.44;5058759;28;45249;-61
2021/12/03 15:55:14;;;;;;;;;5.50;3.25;;;;;5.90;100.00;100393.56;5054682;28;45303;-60
2021/12/03 16:08:24;;;;;;;;;3.00;2.00;;;;;5.91;100.00;100375.50;5050133;28;45391;-59
2021/12/03 16:21:27;;;;;;;;;7.50;5.75;;;;;6.00;100.00;100336.66;5057506;28;45287;-59
2021/12/03 16:53:21;;;;;;;;;3.50;3.50;;;;;6.03;100.00;100282.47;5014323;28;45324;-60
2021/12/03 16:55:58;;;;;;;;;5.75;5.00;;;;;6.04;100.00;100283.34;5047331;28;45600;-59
2021/12/03 16:58:23;;;;;;;;;4.00;4.00;;;;;6.05;100.00;100282.44;5054228;28;45379;-62
2021/12/03 17:00:59;;;;;;;;;2.50;2.00;;;;;6.06;100.00;100271.25;5060321;28;45347;-60
2021/12/03 17:03:30;;;;;;;;;3.25;3.25;;;;;6.05;100.00;100264.41;5061294;28;47324;-60
2021/12/03 18:03:19;;;;;;;;;5.75;5.75;;;;;6.17;100.00;100170.44;5050586;28;45430;-59
2021/12/03 18:06:04;;;;;;;;;9.50;7.50;;;;;6.14;100.00;100161.03;5059628;28;45970;-60
2021/12/03 18:54:07;;;;;;;;;12.75;12.75;;;;;6.35;100.00;100069.47;5057009;28;45358;-60
2021/12/03 18:56:41;;;;;;;;;14.00;11.00;;;;;6.36;100.00;100074.59;5058544;28;45519;-60
2021/12/03 18:59:08;;;;;;;;;13.00;13.00;;;;;6.40;100.00;100065.88;5059048;28;46485;-60
2021/12/03 19:01:34;;;;;;;;;12.50;10.50;;;;;6.44;100.00;100068.44;5059377;28;45350;-60
2021/12/03 19:06:30;;;;;;;;;11.00;11.00;;;;;6.45;100.00;100063.22;5059277;28;45437;-60
2021/12/03 19:09:03;;;;;;;;;19.00;13.00;;;;;6.44;100.00;100055.53;5058893;28;47047;-60
2021/12/03 19:14:13;;;;;;;;;13.50;13.25;;;;;6.48;100.00;100047.69;5058750;28;45234;-61
2021/12/03 19:16:38;;;;;;;;;14.50;12.50;;;;;6.52;100.00;100053.63;5058958;28;45425;-60
2021/12/03 19:19:05;;;;;;;;;17.25;17.00;;;;;6.56;100.00;100045.75;5058898;28;47839;-60
2021/12/03 19:21:38;;;;;;;;;14.50;13.25;;;;;6.59;100.00;100037.94;5058543;28;45621;-60
2021/12/03 19:24:03;;;;;;;;;21.25;18.00;;;;;6.60;100.00;100042.22;5058339;28;45350;-61
2021/12/03 19:26:31;;;;;;;;;16.75;14.50;;;;;6.62;100.00;100044.81;5058199;28;45225;-59
2021/12/03 19:29:00;;;;;;;;;16.00;16.00;;;;;6.64;100.00;100032.69;5058763;28;45982;-60
2021/12/03 19:31:27;;;;;;;;;15.75;14.25;;;;;6.68;100.00;100029.16;5059053;28;45577;-60
2021/12/03 19:33:52;;;;;;;;;19.00;13.75;;;;;6.70;100.00;100022.22;5059296;28;45390;-60
2021/12/03 19:36:24;;;;;;;;;17.50;14.25;;;;;6.75;100.00;100011.78;5058718;28;45323;-60
2021/12/03 19:38:51;;;;;;;;;35.00;30.50;;;;;6.78;100.00;100025.47;5058821;28;47029;-61
2021/12/03 19:41:29;;;;;;;;;18.75;16.75;;;;;6.78;100.00;99997.06;5056231;28;46400;-65
2021/12/03 19:43:57;;;;;;;;;18.00;15.00;;;;;6.83;100.00;100008.16;5060493;28;45431;-59
2021/12/03 19:46:30;;;;;;;;;27.25;25.50;;;;;6.86;100.00;99997.75;5059891;28;45542;-60
2021/12/03 19:51:23;;;;;;;;;15.25;14.25;;;;;6.96;100.00;99996.63;5048871;28;45539;-59
2021/12/03 19:56:20;;;;;;;;;21.00;15.75;;;;;7.06;100.00;99984.34;5059831;28;45334;-59
2021/12/03 19:58:45;;;;;;;;;14.75;11.00;;;;;7.10;100.00;99975.63;5059534;28;46096;-60
2021/12/03 20:01:11;;;;;;;;;18.25;13.25;;;;;7.14;100.00;99969.47;5059606;28;45361;-59
2021/12/03 20:03:36;;;;;;;;;14.25;14.25;;;;;7.17;100.00;99978.88;5059941;28;45370;-59
2021/12/03 20:06:02;;;;;;;;;18.00;16.00;;;;;7.22;100.00;99961.53;5053907;28;45520;-59
2021/12/03 20:08:27;;;;;;;;;18.25;16.00;;;;;7.24;100.00;99962.34;5052676;28;45442;-59
2021/12/03 20:10:57;;;;;;;;;16.50;15.25;;;;;7.25;100.00;99951.13;5059483;28;45292;-65
2021/12/03 20:13:25;;;;;;;;;14.00;12.00;;;;;7.29;100.00;99952.72;5058572;28;45319;-59
2021/12/03 20:18:33;;;;;;;;;21.50;18.75;;;;;7.37;100.00;99955.94;5054429;28;46213;-59
2021/12/03 20:20:59;;;;;;;;;18.50;15.75;;;;;7.42;100.00;99943.78;5053519;28;45302;-60
2021/12/03 20:28:22;;;;;;;;;14.25;14.25;;;;;7.48;100.00;99932.41;5057656;28;46181;-60
2021/12/03 20:30:49;;;;;;;;;18.75;15.50;;;;;7.53;100.00;99927.94;5057489;28;45496;-67
2021/12/03 20:36:15;;;;;;;;;19.25;13.25;;;;;7.60;100.00;99914.78;5056864;28;45495;-60
2021/12/03 20:38:41;;;;;;;;;17.50;14.50;;;;;7.62;100.00;99901.84;5057750;28;46374;-60
2021/12/03 20:41:12;;;;;;;;;23.50;16.50;;;;;7.67;100.00;99904.28;5058696;28;45307;-64
2021/12/03 20:43:58;;;;;;;;;17.75;14.50;;;;;7.71;100.00;99896.41;5059380;28;45440;-63
2021/12/03 20:57:29;;;;;;;;;16.25;12.25;;;;;7.95;100.00;99871.53;5055569;28;45465;-62
2021/12/03 21:10:32;;;;;;;;;22.00;17.00;;;;;8.19;100.00;99854.38;5058704;28;45428;-62
2021/12/03 21:13:07;;;;;;;;;15.50;12.00;;;;;8.23;100.00;99854.25;5059025;28;45225;-61
2021/12/03 21:20:57;;;;;;;;;13.50;12.00;;;;;8.38;100.00;99833.97;5046723;28;45958;-63
2021/12/03 21:23:23;;;;;;;;;10.25;10.25;;;;;8.42;100.00;99807.09;5058578;28;46053;-62
2021/12/03 21:25:54;;;;;;;;;12.25;9.50;;;;;8.46;100.00;99806.09;5074453;28;45453;-61
2021/12/03 21:31:00;;;;;;;;;10.75;10.75;;;;;8.56;100.00;99809.19;5057735;28;46120;-62
2021/12/03 21:41:22;;;;;;;;;10.50;8.50;;;;;8.68;100.00;99801.88;5057018;28;45348;-63
2021/12/03 21:44:00;;;;;;;;;9.00;7.50;;;;;8.72;100.00;99800.84;5056242;28;45816;-62
2021/12/03 21:46:29;;;;;;;;;11.25;8.00;;;;;8.78;100.00;99804.97;5057994;28;45852;-61
2021/12/03 21:48:55;;;;;;;;;6.00;5.50;;;;;8.84;100.00;99803.03;5055303;28;46715;-62
2021/12/03 21:51:23;;;;;;;;;8.75;7.25;;;;;8.88;100.00;99800.31;5059395;28;45406;-61
2021/12/03 21:53:49;;;;;;;;;6.25;4.00;;;;;8.93;100.00;99795.81;5060529;28;45283;-61
2021/12/03 21:56:17;;;;;;;;;6.00;6.00;;;;;8.97;100.00;99795.66;5058616;28;45493;-61
2021/12/03 21:58:43;;;;;;;;;9.25;6.50;;;;;9.02;100.00;99782.53;5056435;28;45353;-60
2021/12/03 22:01:08;;;;;;;;;7.00;7.00;;;;;9.06;100.00;99787.56;5060297;28;46182;-61
2021/12/03 22:03:35;;;;;;;;;8.25;6.00;;;;;9.11;100.00;99783.03;5055036;28;45702;-61
2021/12/03 22:06:02;;;;;;;;;9.25;7.50;;;;;9.16;100.00;99772.50;5061325;28;45435;-62
2021/12/03 22:08:28;;;;;;;;;7.50;6.25;;;;;9.23;100.00;99765.34;5061377;28;45493;-61
2021/12/03 22:10:54;;;;;;;;;8.25;7.25;;;;;9.25;100.00;99759.22;5060792;28;46713;-60
2021/12/03 22:13:26;;;;;;;;;7.75;7.00;;;;;9.31;100.00;99751.19;5058616;28;45319;-60
2021/12/03 22:15:56;;;;;;;;;7.75;6.25;;;;;9.35;100.00;99750.16;5032019;28;45302;-62
2021/12/03 22:18:24;;;;;;;;;6.75;5.00;;;;;9.37;100.00;99745.75;5061183;28;45327;-61
2021/12/03 22:20:50;;;;;;;;;11.75;8.00;;;;;9.43;100.00;99742.09;5061696;28;46384;-62
2021/12/03 22:23:15;;;;;;;;;11.00;9.00;;;;;9.45;100.00;99738.53;5061488;28;46012;-62
2021/12/03 22:25:41;;;;;;;;;9.50;9.25;;;;;9.52;100.00;99725.31;5061991;28;45413;-61
2021/12/03 22:28:07;;;;;;;;;12.25;10.50;;;;;9.56;100.00;99722.53;5061262;28;45526;-62
2021/12/03 22:30:36;;;;;;;;;10.75;8.00;;;;;9.60;100.00;99721.50;5061882;28;46006;-62
2021/12/03 22:33:01;;;;;;;;;14.75;11.00;;;;;9.66;100.00;99712.66;5060671;28;45350;-63
2021/12/03 22:35:27;;;;;;;;;10.25;8.75;;;;;9.67;100.00;99694.44;5061681;28;45449;-61
2021/12/03 22:37:52;;;;;;;;;13.25;10.75;;;;;9.71;100.00;99692.56;5060769;28;45394;-62
2021/12/03 22:40:17;;;;;;;;;11.00;11.00;;;;;9.75;100.00;99694.13;5060843;28;45403;-62
2021/12/03 22:42:43;;;;;;;;;17.50;12.25;;;;;9.77;100.00;99694.91;5058898;28;45458;-60
2021/12/03 22:45:12;;;;;;;;;17.75;14.00;;;;;9.80;100.00;99699.97;5044164;28;45662;-62
2021/12/03 22:47:40;;;;;;;;;20.00;18.25;;;;;9.83;100.00;99686.03;5054351;28;45226;-62
2021/12/03 22:52:39;;;;;;;;;15.00;14.00;;;;;9.88;100.00;99677.16;5046300;28;45383;-67
2021/12/03 22:55:09;;;;;;;;;13.25;12.00;;;;;9.90;100.00;99674.50;5049260;28;45423;-66
2021/12/03 22:57:35;;;;;;;;;13.00;12.00;;;;;9.93;100.00;99677.78;5060019;28;45392;-63
2021/12/03 23:00:01;;;;;;;;;14.75;13.25;;;;;9.93;100.00;99656.19;5060480;28;45407;-64
2021/12/03 23:02:27;;;;;;;;;14.00;12.75;;;;;9.96;100.00;99650.88;5060050;28;45281;-64
2021/12/03 23:04:52;;;;;;;;;13.00;12.00;;;;;9.95;100.00;99652.63;5058844;28;45209;-67
2021/12/03 23:07:17;;;;;;;;;14.00;14.00;;;;;9.98;100.00;99636.06;5059826;28;45201;-67
2021/12/03 23:09:44;;;;;;;;;12.75;12.75;;;;;9.98;100.00;99620.50;5060424;28;46104;-64
2021/12/03 23:12:12;;;;;;;;;8.75;8.75;;;;;10.01;100.00;99621.25;5060059;28;45261;-65
2021/12/03 23:14:38;;;;;;;;;14.25;11.50;;;;;10.03;100.00;99614.22;5060736;28;45313;-66
2021/12/03 23:17:03;;;;;;;;;9.75;9.75;;;;;10.06;100.00;99610.66;5041097;28;45410;-66
2021/12/03 23:19:29;;;;;;;;;10.00;7.75;;;;;10.10;100.00;99603.56;5052282;28;46160;-65
2021/12/03 23:21:56;;;;;;;;;10.25;8.50;;;;;10.14;100.00;99598.16;5056865;28;45281;-65
2021/12/03 23:24:21;;;;;;;;;9.25;7.75;;;;;10.17;100.00;99590.22;5049856;28;45292;-65
2021/12/03 23:26:48;;;;;;;;;12.00;10.00;;;;;10.20;100.00;99590.09;5041639;28;45377;-64
2021/12/03 23:29:14;;;;;;;;;9.75;7.75;;;;;10.24;100.00;99568.34;5040827;28;46413;-65
2021/12/03 23:31:42;;;;;;;;;7.00;5.75;;;;;10.28;100.00;99561.25;5035413;28;45383;-63
2021/12/03 23:34:12;;;;;;;;;8.00;7.00;;;;;10.32;100.00;99557.59;5038333;28;45505;-65
2021/12/03 23:36:39;;;;;;;;;5.75;5.75;;;;;10.36;100.00;99556.53;5021778;28;45261;-65
2021/12/03 23:39:06;;;;;;;;;10.00;9.50;;;;;10.40;100.00;99546.84;5045912;28;48145;-68
2021/12/03 23:41:32;;;;;;;;;9.50;8.50;;;;;10.40;100.00;99547.69;5057848;28;45920;-67
2021/12/03 23:43:58;;;;;;;;;9.00;9.00;;;;;10.41;100.00;99541.59;5057960;28;45294;-67
2021/12/03 23:46:23;;;;;;;;;8.75;8.00;;;;;10.43;100.00;99534.59;5057196;28;45442;-69
2021/12/03 23:48:50;;;;;;;;;7.50;6.00;;;;;10.46;100.00;99524.06;5058550;28;46252;-66
2021/12/03 23:51:15;;;;;;;;;10.50;7.50;;;;;10.51;100.00;99523.81;5054064;28;45376;-64
2021/12/03 23:53:41;;;;;;;;;4.25;4.25;;;;;10.53;100.00;99520.25;5054492;28;45808;-66
2021/12/03 23:56:07;;;;;;;;;3.00;3.00;;;;;10.56;100.00;99516.66;5056504;28;45778;-65
2021/12/03 23:58:35;;;;;;;;;5.25;5.25;;;;;10.59;100.00;99504.34;5056485;28;45410;-64
